sim
Sign-in with your pilot id or email,
or register
Callsign
Passwort

Schedule Details

Flight Number: OEO7019
Departure: Delhi Indira Gandhi International Airport (VIDP) at 20:35
Arrival: Frankfurt Airport (EDDF) at 05:20

Weather Information
Getting current METAR information for VIDP 312130Z 00000KT 1200 R28/2000 R29/2000 FU NSC 17/11 Q1013 NOSIG
Getting current METAR information for EDDF 312150Z 21005KT 9999 VCSH FEW043 11/09 Q1018 NOSIG

Schedule Frequency

Route Map